Time;durP1;ratioP1;P1;durP2;ratioP2;P2;SDS_P1;SDS_P2;PMS_P1;PMS_P2;Temp;Humidity;BMP_temperature;BMP_pressure;BME280_temperature;BME280_humidity;BME280_pressure;Samples;Min_cycle;Max_cycle;Signal;HPM_P1;HPM_P2
2022/12/25 00:00:36;;;;;;;67.63;25.10;;;;;;;;;;5063349;28;20089;-71
2022/12/25 00:03:02;;;;;;;57.92;24.23;;;;;;;;;;5062587;28;20040;-71
2022/12/25 00:05:28;;;;;;;72.93;26.98;;;;;;;;;;5060541;28;20434;-71
2022/12/25 00:07:54;;;;;;;69.22;27.20;;;;;;;;;;5062502;28;20461;-71
2022/12/25 00:10:20;;;;;;;60.97;26.73;;;;;;;;;;5062588;28;20388;-71
2022/12/25 00:12:46;;;;;;;58.38;25.05;;;;;;;;;;5064607;28;20404;-71
2022/12/25 00:15:12;;;;;;;67.10;28.15;;;;;;;;;;5064433;28;20059;-71
2022/12/25 00:17:38;;;;;;;66.70;29.10;;;;;;;;;;5061021;28;20128;-71
2022/12/25 00:20:04;;;;;;;61.20;25.40;;;;;;;;;;5065076;28;20560;-71
2022/12/25 00:22:30;;;;;;;66.15;26.67;;;;;;;;;;5067397;28;20480;-71
2022/12/25 00:24:56;;;;;;;59.20;26.30;;;;;;;;;;5062958;28;20051;-71
2022/12/25 00:27:22;;;;;;;60.15;26.20;;;;;;;;;;5062921;28;20049;-71
2022/12/25 00:29:48;;;;;;;58.88;23.52;;;;;;;;;;5059670;28;20041;-71
2022/12/25 00:32:14;;;;;;;67.47;25.00;;;;;;;;;;5063373;28;20095;-71
2022/12/25 00:34:40;;;;;;;67.30;26.45;;;;;;;;;;5065168;28;20155;-71
2022/12/25 00:37:06;;;;;;;60.25;24.88;;;;;;;;;;5065513;28;20584;-71
2022/12/25 00:39:32;;;;;;;64.45;26.75;;;;;;;;;;5069125;28;20064;-71
2022/12/25 00:44:45;;;;;;;68.07;28.33;;;;;;;;;;5066623;28;20460;-71
2022/12/25 00:47:11;;;;;;;61.15;25.42;;;;;;;;;;5059456;28;20398;-71
2022/12/25 00:49:37;;;;;;;82.82;31.35;;;;;;;;;;5068940;28;20040;-71
2022/12/25 00:52:03;;;;;;;75.10;27.15;;;;;;;;;;5063520;28;20047;-71
2022/12/25 00:54:29;;;;;;;77.35;26.42;;;;;;;;;;5066233;28;20056;-71
2022/12/25 00:56:55;;;;;;;63.50;26.52;;;;;;;;;;5064809;28;20103;-71
2022/12/25 00:59:21;;;;;;;73.53;26.83;;;;;;;;;;5059584;28;20491;-71
2022/12/25 01:01:47;;;;;;;65.55;26.60;;;;;;;;;;5066010;28;20140;-71
2022/12/25 01:04:13;;;;;;;70.88;26.55;;;;;;;;;;5061122;28;20539;-71
2022/12/25 01:06:39;;;;;;;71.60;27.15;;;;;;;;;;5063134;28;20131;-71
2022/12/25 01:11:50;;;;;;;62.15;25.27;;;;;;;;;;5058734;28;20103;-71
2022/12/25 01:14:16;;;;;;;67.47;28.45;;;;;;;;;;5062193;28;20064;-71
2022/12/25 01:16:43;;;;;;;64.25;27.88;;;;;;;;;;5062995;28;20094;-71
2022/12/25 01:19:09;;;;;;;70.30;27.75;;;;;;;;;;5068868;28;20384;-71
2022/12/25 01:21:35;;;;;;;61.50;27.17;;;;;;;;;;5067588;28;20116;-71
2022/12/25 01:24:01;;;;;;;68.68;27.42;;;;;;;;;;5068153;28;20123;-71
2022/12/25 01:26:27;;;;;;;74.80;28.60;;;;;;;;;;5069623;28;20059;-71
2022/12/25 01:28:53;;;;;;;73.50;27.98;;;;;;;;;;5069534;28;20040;-71
2022/12/25 01:31:21;;;;;;;69.13;30.25;;;;;;;;;;5069880;28;20072;-71
2022/12/25 01:33:47;;;;;;;74.88;29.00;;;;;;;;;;5069675;28;20044;-71
2022/12/25 01:36:14;;;;;;;70.93;29.95;;;;;;;;;;5070762;28;20056;-71
2022/12/25 01:38:40;;;;;;;69.45;29.27;;;;;;;;;;5065817;28;20128;-71
2022/12/25 01:41:06;;;;;;;81.65;31.45;;;;;;;;;;5069659;28;20051;-71
2022/12/25 01:43:33;;;;;;;70.55;33.90;;;;;;;;;;5070385;28;20052;-72
2022/12/25 01:45:59;;;;;;;73.85;31.88;;;;;;;;;;5063120;28;20197;-71
2022/12/25 01:48:29;;;;;;;78.97;32.47;;;;;;;;;;5068935;28;20053;-71
2022/12/25 01:51:00;;;;;;;80.25;32.63;;;;;;;;;;5061766;28;20049;-71
2022/12/25 01:53:27;;;;;;;82.68;34.38;;;;;;;;;;5066669;28;20491;-71
2022/12/25 01:55:58;;;;;;;82.18;29.98;;;;;;;;;;5065373;28;20037;-72
2022/12/25 01:58:24;;;;;;;64.55;28.60;;;;;;;;;;5069299;28;20040;-71
2022/12/25 02:00:51;;;;;;;69.95;28.40;;;;;;;;;;5072583;28;20036;-71
2022/12/25 02:03:17;;;;;;;67.90;28.95;;;;;;;;;;5062977;28;20119;-71
2022/12/25 02:05:45;;;;;;;64.07;29.15;;;;;;;;;;5069840;28;20050;-71
2022/12/25 02:08:12;;;;;;;69.85;30.40;;;;;;;;;;5062710;28;20144;-71
2022/12/25 02:10:38;;;;;;;73.45;29.10;;;;;;;;;;5070543;28;20365;-71
2022/12/25 02:13:05;;;;;;;65.78;28.23;;;;;;;;;;5067849;28;20378;-71
2022/12/25 02:15:55;;;;;;;66.28;27.13;;;;;;;;;;5066457;28;20040;-72
2022/12/25 02:18:36;;;;;;;63.10;28.55;;;;;;;;;;5064840;28;20080;-71
2022/12/25 02:21:17;;;;;;;58.15;28.38;;;;;;;;;;5066747;28;20102;-71
2022/12/25 02:23:46;;;;;;;65.53;27.80;;;;;;;;;;5068757;28;20816;-71
2022/12/25 02:26:12;;;;;;;57.20;26.25;;;;;;;;;;5063861;28;20409;-71
2022/12/25 02:28:44;;;;;;;57.92;29.15;;;;;;;;;;5067428;28;20079;-71
2022/12/25 02:31:12;;;;;;;59.72;27.20;;;;;;;;;;5062872;28;20086;-71
2022/12/25 02:34:03;;;;;;;55.67;25.90;;;;;;;;;;5066757;28;20522;-72
2022/12/25 02:36:48;;;;;;;64.50;28.83;;;;;;;;;;5066764;28;20056;-71
2022/12/25 03:07:43;;;;;;;70.05;33.42;;;;;;;;;;5068357;28;20118;-72
2022/12/25 03:13:03;;;;;;;68.53;30.35;;;;;;;;;;5064359;28;20127;-71
2022/12/25 03:18:18;;;;;;;70.47;31.63;;;;;;;;;;5067163;28;20127;-71
2022/12/25 03:29:01;;;;;;;67.38;32.40;;;;;;;;;;5063234;28;20139;-71
2022/12/25 03:31:36;;;;;;;59.63;31.45;;;;;;;;;;5064424;28;20048;-71
2022/12/25 04:38:19;;;;;;;95.68;36.20;;;;;;;;;;5060529;28;20056;-71
2022/12/25 04:40:45;;;;;;;92.25;35.75;;;;;;;;;;5067257;28;20492;-71
2022/12/25 04:43:11;;;;;;;102.25;39.10;;;;;;;;;;5063538;28;20055;-71
2022/12/25 04:45:38;;;;;;;86.13;36.78;;;;;;;;;;5063780;28;20070;-71
2022/12/25 04:48:04;;;;;;;81.00;35.92;;;;;;;;;;5065522;28;20074;-71
2022/12/25 04:50:30;;;;;;;73.35;34.67;;;;;;;;;;5062261;28;20051;-71
2022/12/25 04:52:59;;;;;;;76.57;34.25;;;;;;;;;;5069938;28;20080;-71
2022/12/25 04:55:25;;;;;;;80.40;35.35;;;;;;;;;;5067189;28;20052;-71
2022/12/25 04:57:51;;;;;;;73.57;33.35;;;;;;;;;;5070662;28;20045;-71
2022/12/25 05:00:17;;;;;;;78.15;35.15;;;;;;;;;;5068166;28;20443;-71
2022/12/25 05:02:46;;;;;;;71.68;32.95;;;;;;;;;;5069899;28;20075;-71
2022/12/25 05:05:12;;;;;;;74.78;34.60;;;;;;;;;;5069013;28;20071;-71
2022/12/25 05:07:38;;;;;;;69.22;34.92;;;;;;;;;;5068830;28;20036;-71
2022/12/25 05:10:05;;;;;;;76.50;33.80;;;;;;;;;;5073243;28;20051;-71
2022/12/25 05:12:31;;;;;;;63.63;31.83;;;;;;;;;;5069049;28;20434;-71
2022/12/25 05:14:57;;;;;;;73.40;31.67;;;;;;;;;;5070573;28;20036;-71
2022/12/25 05:17:23;;;;;;;76.22;31.65;;;;;;;;;;5064452;28;20044;-71
2022/12/25 05:19:49;;;;;;;74.82;33.35;;;;;;;;;;5067045;28;20095;-71
2022/12/25 05:22:15;;;;;;;73.40;34.03;;;;;;;;;;5067278;28;20045;-71
2022/12/25 05:24:41;;;;;;;74.30;32.22;;;;;;;;;;5068547;28;20434;-71
2022/12/25 05:27:07;;;;;;;65.88;30.75;;;;;;;;;;5066400;28;20051;-71
2022/12/25 05:29:33;;;;;;;64.47;34.20;;;;;;;;;;5067450;28;20047;-71
2022/12/25 05:31:59;;;;;;;75.97;33.40;;;;;;;;;;5064650;28;20400;-71
2022/12/25 05:34:25;;;;;;;65.00;31.42;;;;;;;;;;5066753;28;20048;-71
2022/12/25 05:36:55;;;;;;;65.07;33.15;;;;;;;;;;5066109;28;20549;-71
2022/12/25 05:39:21;;;;;;;66.75;32.00;;;;;;;;;;5064401;28;20045;-71
2022/12/25 05:41:47;;;;;;;72.60;34.00;;;;;;;;;;5063192;28;20029;-71
2022/12/25 05:44:13;;;;;;;65.57;31.98;;;;;;;;;;5065901;28;20094;-72
2022/12/25 05:46:39;;;;;;;68.78;32.83;;;;;;;;;;5064177;28;20109;-71
2022/12/25 05:49:05;;;;;;;71.32;32.33;;;;;;;;;;5065079;28;20488;-71
2022/12/25 05:51:32;;;;;;;69.93;31.98;;;;;;;;;;5068019;28;20522;-72
2022/12/25 05:53:58;;;;;;;64.85;31.88;;;;;;;;;;5064298;28;20045;-71
2022/12/25 05:56:24;;;;;;;64.25;31.25;;;;;;;;;;5062811;28;20044;-72
2022/12/25 05:58:50;;;;;;;59.75;29.00;;;;;;;;;;5063182;28;20506;-71
2022/12/25 06:01:18;;;;;;;62.75;30.23;;;;;;;;;;5066229;28;20037;-71
2022/12/25 06:03:44;;;;;;;57.72;30.20;;;;;;;;;;5064954;28;20071;-71
2022/12/25 06:06:11;;;;;;;58.95;29.48;;;;;;;;;;5064424;28;20136;-71
2022/12/25 06:08:37;;;;;;;65.53;30.48;;;;;;;;;;5067823;28;20033;-71
2022/12/25 06:11:04;;;;;;;69.35;32.53;;;;;;;;;;5059276;28;20041;-71
2022/12/25 06:13:33;;;;;;;60.50;30.70;;;;;;;;;;5068542;28;20068;-72
2022/12/25 06:15:59;;;;;;;63.53;32.35;;;;;;;;;;5060788;28;20467;-71
2022/12/25 06:18:26;;;;;;;69.00;32.15;;;;;;;;;;5069313;28;20048;-71
2022/12/25 06:20:52;;;;;;;64.10;30.42;;;;;;;;;;5058433;28;20072;-71
2022/12/25 06:23:18;;;;;;;57.30;28.92;;;;;;;;;;5064339;28;20511;-71
2022/12/25 06:25:44;;;;;;;61.00;30.63;;;;;;;;;;5069819;28;20085;-71
2022/12/25 06:28:10;;;;;;;68.30;30.77;;;;;;;;;;5066074;28;20044;-72
2022/12/25 06:30:36;;;;;;;58.50;29.45;;;;;;;;;;5061176;28;20040;-71
2022/12/25 06:33:02;;;;;;;62.95;30.73;;;;;;;;;;5065380;28;20044;-71
2022/12/25 06:35:28;;;;;;;71.22;32.00;;;;;;;;;;5066659;28;20053;-71
2022/12/25 06:37:55;;;;;;;62.92;31.73;;;;;;;;;;5068437;28;20397;-72
2022/12/25 06:40:21;;;;;;;69.55;31.67;;;;;;;;;;5060653;28;20052;-71
2022/12/25 06:42:47;;;;;;;63.13;31.35;;;;;;;;;;5066694;28;20589;-71
2022/12/25 06:45:13;;;;;;;71.85;32.15;;;;;;;;;;5061896;28;20060;-71
2022/12/25 06:47:39;;;;;;;55.33;29.15;;;;;;;;;;5066396;28;20415;-72
2022/12/25 06:50:06;;;;;;;59.67;30.70;;;;;;;;;;5064943;28;20048;-72
2022/12/25 06:52:32;;;;;;;58.67;31.45;;;;;;;;;;5067303;28;20063;-71
2022/12/25 06:54:58;;;;;;;60.97;31.40;;;;;;;;;;5068479;28;20039;-71
2022/12/25 06:57:24;;;;;;;53.63;28.02;;;;;;;;;;5060488;28;20740;-72
2022/12/25 06:59:50;;;;;;;63.70;29.75;;;;;;;;;;5068332;28;20166;-72
2022/12/25 07:02:21;;;;;;;59.72;30.30;;;;;;;;;;5063791;28;20063;-71
2022/12/25 07:04:48;;;;;;;63.25;30.50;;;;;;;;;;5065194;28;20062;-71
2022/12/25 07:07:14;;;;;;;66.40;32.40;;;;;;;;;;5066235;28;20040;-72
2022/12/25 07:09:41;;;;;;;60.50;29.67;;;;;;;;;;5066406;28;20484;-72
2022/12/25 07:12:12;;;;;;;59.38;30.40;;;;;;;;;;5068432;28;20483;-72
2022/12/25 07:14:39;;;;;;;69.13;32.08;;;;;;;;;;5060413;28;20408;-72
2022/12/25 07:17:05;;;;;;;58.60;29.40;;;;;;;;;;5062207;28;20043;-72
2022/12/25 07:19:31;;;;;;;61.75;31.90;;;;;;;;;;5065071;28;20496;-71
2022/12/25 07:21:57;;;;;;;62.92;30.70;;;;;;;;;;5064843;28;20033;-71
2022/12/25 07:24:24;;;;;;;64.75;31.83;;;;;;;;;;5065553;28;20125;-71
2022/12/25 07:26:50;;;;;;;65.53;32.17;;;;;;;;;;5068908;28;20124;-73
2022/12/25 07:29:16;;;;;;;57.97;30.30;;;;;;;;;;5064323;28;20052;-72
2022/12/25 07:31:42;;;;;;;58.80;31.10;;;;;;;;;;5059866;28;20040;-71
2022/12/25 07:34:09;;;;;;;60.92;30.77;;;;;;;;;;5066152;28;20098;-71
2022/12/25 07:36:35;;;;;;;63.30;32.15;;;;;;;;;;5062770;28;20044;-73
2022/12/25 07:39:01;;;;;;;61.08;32.28;;;;;;;;;;5067496;28;20052;-72
2022/12/25 07:41:27;;;;;;;62.95;31.77;;;;;;;;;;5066546;28;20045;-72
2022/12/25 07:43:53;;;;;;;59.92;30.60;;;;;;;;;;5059075;28;20124;-71
2022/12/25 07:46:20;;;;;;;66.85;31.85;;;;;;;;;;5066485;28;20130;-73
2022/12/25 07:48:46;;;;;;;59.03;30.15;;;;;;;;;;5066506;28;20048;-73
2022/12/25 07:51:13;;;;;;;54.40;27.38;;;;;;;;;;5068410;28;20407;-72
2022/12/25 07:53:40;;;;;;;64.43;29.92;;;;;;;;;;5062691;28;20408;-72
2022/12/25 07:56:07;;;;;;;52.22;29.10;;;;;;;;;;5067427;28;20423;-73
2022/12/25 07:58:34;;;;;;;53.58;26.23;;;;;;;;;;5067654;28;20045;-71
2022/12/25 08:01:26;;;;;;;54.05;27.77;;;;;;;;;;5055888;28;20037;-72
2022/12/25 08:03:53;;;;;;;47.85;25.65;;;;;;;;;;5060304;28;20044;-72
2022/12/25 08:06:19;;;;;;;49.55;26.77;;;;;;;;;;5063623;28;20044;-73
2022/12/25 08:08:45;;;;;;;50.95;25.58;;;;;;;;;;5064478;28;20488;-73
2022/12/25 08:11:12;;;;;;;47.38;23.42;;;;;;;;;;5067390;28;20866;-73
2022/12/25 08:13:38;;;;;;;48.60;25.52;;;;;;;;;;5065881;28;20060;-74
2022/12/25 08:16:08;;;;;;;47.17;25.23;;;;;;;;;;5063204;28;20083;-74
2022/12/25 08:18:35;;;;;;;41.83;22.83;;;;;;;;;;5066803;28;20483;-73
2022/12/25 08:21:02;;;;;;;42.22;22.17;;;;;;;;;;5060478;28;20041;-73
2022/12/25 08:23:29;;;;;;;36.40;22.45;;;;;;;;;;5066572;28;20045;-74
2022/12/25 08:25:58;;;;;;;44.58;22.75;;;;;;;;;;5068507;28;20032;-75
2022/12/25 08:28:28;;;;;;;40.80;22.58;;;;;;;;;;5064985;28;20084;-73
2022/12/25 08:30:54;;;;;;;38.83;22.13;;;;;;;;;;5069633;28;20056;-72
2022/12/25 08:33:20;;;;;;;37.85;22.63;;;;;;;;;;5071414;28;20064;-74
2022/12/25 08:35:46;;;;;;;35.58;20.90;;;;;;;;;;5071039;28;20052;-74
2022/12/25 08:38:12;;;;;;;41.35;21.90;;;;;;;;;;5070533;28;20056;-74
2022/12/25 08:40:38;;;;;;;34.70;21.65;;;;;;;;;;5071359;28;20127;-75
2022/12/25 08:43:04;;;;;;;37.63;20.20;;;;;;;;;;5071857;28;20097;-75
2022/12/25 08:45:30;;;;;;;38.95;19.17;;;;;;;;;;5064702;28;20048;-74
2022/12/25 08:47:56;;;;;;;31.90;18.27;;;;;;;;;;5066938;28;20083;-74
2022/12/25 08:50:23;;;;;;;37.35;19.65;;;;;;;;;;5065729;28;20127;-74
2022/12/25 08:52:49;;;;;;;34.45;20.08;;;;;;;;;;5071463;28;20051;-74
2022/12/25 08:55:15;;;;;;;29.77;18.45;;;;;;;;;;5067143;28;20136;-74
2022/12/25 08:57:42;;;;;;;30.80;18.00;;;;;;;;;;5071089;28;20399;-75
2022/12/25 09:00:08;;;;;;;30.50;18.02;;;;;;;;;;5066858;28;20055;-74
2022/12/25 09:02:35;;;;;;;28.15;17.55;;;;;;;;;;5065193;28;20105;-74
2022/12/25 09:05:03;;;;;;;30.80;18.55;;;;;;;;;;5068766;28;20044;-74
2022/12/25 09:07:29;;;;;;;34.05;17.83;;;;;;;;;;5073387;28;20119;-74
2022/12/25 09:09:55;;;;;;;33.60;16.73;;;;;;;;;;5070329;28;20522;-74
2022/12/25 09:12:24;;;;;;;32.95;17.75;;;;;;;;;;5072039;28;20101;-74
2022/12/25 09:14:50;;;;;;;34.53;18.08;;;;;;;;;;5073210;28;20045;-74
2022/12/25 09:17:16;;;;;;;30.10;17.15;;;;;;;;;;5072380;28;20407;-74
2022/12/25 09:19:45;;;;;;;33.05;18.35;;;;;;;;;;5066410;28;20045;-74
2022/12/25 09:22:11;;;;;;;30.27;19.02;;;;;;;;;;5059837;28;20146;-74
2022/12/25 09:24:38;;;;;;;37.95;18.42;;;;;;;;;;5073012;28;20072;-74
2022/12/25 09:27:04;;;;;;;40.50;22.38;;;;;;;;;;5068063;28;20551;-74
2022/12/25 09:29:30;;;;;;;35.65;22.33;;;;;;;;;;5072134;28;20114;-74
2022/12/25 09:31:56;;;;;;;43.45;22.52;;;;;;;;;;5069967;28;20106;-74
2022/12/25 09:34:25;;;;;;;36.65;17.63;;;;;;;;;;5054568;28;20132;-74
2022/12/25 09:36:51;;;;;;;41.92;22.67;;;;;;;;;;5064724;28;20049;-74
2022/12/25 09:39:17;;;;;;;40.28;20.52;;;;;;;;;;5064289;28;20462;-74
2022/12/25 09:41:49;;;;;;;40.03;21.48;;;;;;;;;;5068190;28;20066;-74
2022/12/25 09:44:23;;;;;;;40.13;21.13;;;;;;;;;;5069180;28;20059;-74
2022/12/25 09:46:55;;;;;;;40.88;20.63;;;;;;;;;;5066375;28;20051;-75
2022/12/25 09:49:24;;;;;;;34.03;19.65;;;;;;;;;;5068369;28;20056;-75
2022/12/25 09:51:52;;;;;;;35.83;21.63;;;;;;;;;;5069261;28;20073;-74
2022/12/25 09:54:22;;;;;;;35.05;20.85;;;;;;;;;;5069378;28;20071;-74
2022/12/25 09:56:48;;;;;;;35.15;17.92;;;;;;;;;;5079842;28;20376;-75
2022/12/25 09:59:20;;;;;;;35.88;19.83;;;;;;;;;;5075947;28;20511;-74
2022/12/25 10:02:10;;;;;;;37.10;19.85;;;;;;;;;;5068920;28;20508;-74
2022/12/25 10:04:49;;;;;;;29.77;18.50;;;;;;;;;;5037276;28;20051;-74
2022/12/25 10:07:15;;;;;;;34.25;19.35;;;;;;;;;;5066116;28;20481;-75
2022/12/25 10:09:51;;;;;;;37.58;20.42;;;;;;;;;;5070486;28;20055;-74
2022/12/25 10:12:22;;;;;;;34.95;19.55;;;;;;;;;;5065194;28;20049;-74
2022/12/25 10:15:00;;;;;;;31.52;18.50;;;;;;;;;;5063900;28;20171;-75
2022/12/25 10:17:44;;;;;;;32.78;18.10;;;;;;;;;;5064611;28;20036;-74
2022/12/25 10:20:28;;;;;;;36.55;18.85;;;;;;;;;;5070602;28;20040;-75
2022/12/25 10:22:58;;;;;;;33.30;17.63;;;;;;;;;;5067559;28;20048;-74
2022/12/25 10:25:24;;;;;;;31.80;18.13;;;;;;;;;;5066526;28;20453;-74
2022/12/25 10:27:59;;;;;;;31.42;17.52;;;;;;;;;;5063763;28;20041;-74
2022/12/25 10:30:26;;;;;;;23.20;14.65;;;;;;;;;;5062255;28;20048;-74
2022/12/25 10:32:52;;;;;;;26.65;16.15;;;;;;;;;;5070277;28;20127;-74
2022/12/25 10:35:20;;;;;;;26.85;15.82;;;;;;;;;;5070891;28;20507;-74
2022/12/25 10:37:49;;;;;;;25.65;14.85;;;;;;;;;;5068640;28;20064;-74
2022/12/25 10:40:34;;;;;;;22.95;13.93;;;;;;;;;;5072764;28;20076;-74
2022/12/25 10:43:07;;;;;;;22.77;14.30;;;;;;;;;;5062671;28;20056;-74
2022/12/25 10:45:42;;;;;;;21.85;13.20;;;;;;;;;;5069824;28;20045;-74
2022/12/25 10:48:08;;;;;;;23.58;14.88;;;;;;;;;;5061867;28;20057;-74
2022/12/25 10:50:34;;;;;;;22.98;14.02;;;;;;;;;;5070411;28;20044;-75
2022/12/25 10:53:04;;;;;;;25.33;15.38;;;;;;;;;;5069393;28;20078;-74
2022/12/25 10:55:31;;;;;;;26.27;16.10;;;;;;;;;;5070691;28;20092;-75
2022/12/25 10:57:57;;;;;;;31.42;15.65;;;;;;;;;;5069068;28;20040;-74
2022/12/25 11:00:25;;;;;;;29.42;16.60;;;;;;;;;;5068218;28;20049;-74
2022/12/25 11:02:51;;;;;;;28.20;15.75;;;;;;;;;;5069277;28;20561;-74
2022/12/25 11:05:26;;;;;;;25.02;15.13;;;;;;;;;;5067198;28;20040;-74
2022/12/25 11:07:54;;;;;;;27.45;15.57;;;;;;;;;;5067289;28;20040;-75
2022/12/25 11:10:23;;;;;;;28.27;16.15;;;;;;;;;;5058746;28;20072;-74
2022/12/25 11:12:49;;;;;;;25.83;14.98;;;;;;;;;;5063803;28;20056;-74
2022/12/25 11:15:34;;;;;;;26.23;15.25;;;;;;;;;;5057648;28;20055;-75
2022/12/25 11:18:00;;;;;;;26.63;15.60;;;;;;;;;;5063821;28;20063;-74
2022/12/25 11:20:26;;;;;;;27.48;15.02;;;;;;;;;;5059811;28;20544;-74
2022/12/25 11:22:52;;;;;;;27.95;15.80;;;;;;;;;;5057196;28;20552;-74
2022/12/25 11:25:23;;;;;;;27.20;15.00;;;;;;;;;;5057296;28;20123;-74
2022/12/25 11:27:57;;;;;;;26.75;16.15;;;;;;;;;;5063776;28;20040;-74
2022/12/25 11:30:23;;;;;;;27.60;14.73;;;;;;;;;;5057651;28;20052;-74
2022/12/25 11:32:54;;;;;;;24.80;15.23;;;;;;;;;;5055810;28;20045;-74
2022/12/25 11:35:22;;;;;;;27.73;14.18;;;;;;;;;;5062767;28;20045;-74
2022/12/25 11:37:49;;;;;;;26.67;16.40;;;;;;;;;;5061078;28;20052;-74
2022/12/25 11:40:15;;;;;;;27.63;15.23;;;;;;;;;;5061845;28;20128;-74
2022/12/25 11:42:45;;;;;;;29.95;16.48;;;;;;;;;;5063813;28;20054;-75
2022/12/25 11:45:14;;;;;;;28.05;15.77;;;;;;;;;;5063881;28;20066;-73
2022/12/25 11:47:55;;;;;;;28.50;16.40;;;;;;;;;;5066400;28;20063;-73
2022/12/25 11:50:24;;;;;;;27.13;14.85;;;;;;;;;;5065368;28;20055;-73
2022/12/25 11:52:51;;;;;;;25.50;15.30;;;;;;;;;;5064286;28;20040;-73
2022/12/25 11:55:21;;;;;;;25.75;14.30;;;;;;;;;;5060112;28;20137;-74
2022/12/25 11:57:58;;;;;;;24.75;14.70;;;;;;;;;;5069166;28;20178;-73
2022/12/25 12:00:25;;;;;;;22.23;13.35;;;;;;;;;;5061884;28;20484;-73
2022/12/25 12:03:06;;;;;;;24.60;14.95;;;;;;;;;;5068562;28;20045;-73
2022/12/25 12:05:34;;;;;;;23.23;14.00;;;;;;;;;;5064888;28;20131;-73
2022/12/25 12:08:01;;;;;;;21.58;14.18;;;;;;;;;;5066366;28;20044;-73
2022/12/25 12:10:32;;;;;;;19.92;12.60;;;;;;;;;;5063286;28;20405;-73
2022/12/25 12:13:17;;;;;;;23.35;13.38;;;;;;;;;;5064412;28;20048;-73
2022/12/25 12:15:44;;;;;;;20.85;12.88;;;;;;;;;;5067065;28;20032;-73
2022/12/25 12:18:19;;;;;;;22.95;13.10;;;;;;;;;;5060402;28;20046;-74
2022/12/25 12:20:56;;;;;;;22.25;13.07;;;;;;;;;;5059976;28;20060;-74
2022/12/25 12:23:22;;;;;;;21.38;12.43;;;;;;;;;;5068099;28;20033;-74
2022/12/25 12:25:49;;;;;;;22.83;13.18;;;;;;;;;;5063022;28;20154;-75
2022/12/25 12:28:23;;;;;;;19.98;12.35;;;;;;;;;;5064229;28;20445;-74
2022/12/25 12:31:03;;;;;;;19.42;12.40;;;;;;;;;;5065660;28;20484;-74
2022/12/25 12:33:31;;;;;;;18.85;11.70;;;;;;;;;;5064350;28;20087;-75
2022/12/25 12:35:57;;;;;;;20.70;12.45;;;;;;;;;;5064440;28;20044;-72
2022/12/25 12:38:24;;;;;;;21.73;12.43;;;;;;;;;;5052362;28;20048;-73
2022/12/25 12:40:52;;;;;;;21.38;12.02;;;;;;;;;;5063184;28;20049;-73
2022/12/25 12:43:34;;;;;;;17.92;11.43;;;;;;;;;;5057592;28;20091;-74
2022/12/25 12:46:06;;;;;;;26.80;16.63;;;;;;;;;;5062537;28;20053;-74
2022/12/25 12:48:40;;;;;;;17.17;12.00;;;;;;;;;;5065809;28;20048;-74
2022/12/25 12:51:11;;;;;;;19.33;12.50;;;;;;;;;;5065187;28;20070;-74
2022/12/25 12:53:38;;;;;;;20.67;13.00;;;;;;;;;;5064853;28;20053;-74
2022/12/25 12:56:11;;;;;;;17.77;11.90;;;;;;;;;;5057123;28;20481;-74
2022/12/25 12:58:43;;;;;;;20.17;12.82;;;;;;;;;;5067958;28;20071;-74
2022/12/25 13:01:09;;;;;;;17.95;12.15;;;;;;;;;;5065683;28;20059;-74
2022/12/25 13:03:54;;;;;;;19.17;12.80;;;;;;;;;;5066484;28;20484;-74
2022/12/25 13:06:25;;;;;;;15.13;12.20;;;;;;;;;;5063253;28;20044;-74
2022/12/25 13:08:57;;;;;;;21.77;13.35;;;;;;;;;;5062884;28;20036;-74
2022/12/25 13:11:25;;;;;;;18.50;13.48;;;;;;;;;;5062209;28;20036;-74
2022/12/25 13:13:52;;;;;;;23.10;12.88;;;;;;;;;;5067302;28;20070;-73
2022/12/25 13:16:18;;;;;;;20.55;13.07;;;;;;;;;;5066108;28;20499;-74
2022/12/25 13:18:45;;;;;;;20.13;11.75;;;;;;;;;;5066171;28;20049;-74
2022/12/25 13:21:17;;;;;;;17.83;12.25;;;;;;;;;;5081788;28;20052;-74
2022/12/25 13:23:43;;;;;;;20.88;12.98;;;;;;;;;;5071097;28;20091;-74
2022/12/25 13:26:14;;;;;;;18.25;12.10;;;;;;;;;;5065485;28;20056;-74
2022/12/25 13:28:40;;;;;;;16.58;11.70;;;;;;;;;;5066244;28;20145;-74
2022/12/25 13:31:06;;;;;;;18.10;12.65;;;;;;;;;;5062419;28;20072;-74
2022/12/25 13:33:33;;;;;;;18.15;11.65;;;;;;;;;;5071556;28;20504;-74
2022/12/25 13:35:59;;;;;;;18.65;12.43;;;;;;;;;;5065795;28;20048;-74
2022/12/25 13:38:27;;;;;;;18.35;11.95;;;;;;;;;;5065272;28;20070;-74
2022/12/25 13:43:40;;;;;;;18.52;12.68;;;;;;;;;;5069829;28;20044;-74
2022/12/25 13:46:06;;;;;;;18.58;13.07;;;;;;;;;;5067553;28;20052;-74
2022/12/25 13:48:32;;;;;;;19.48;14.23;;;;;;;;;;5062225;28;20156;-74
2022/12/25 13:51:00;;;;;;;19.80;12.57;;;;;;;;;;5064779;28;20073;-74
2022/12/25 13:53:26;;;;;;;19.10;13.82;;;;;;;;;;5066866;28;20055;-74
2022/12/25 13:55:53;;;;;;;21.30;15.05;;;;;;;;;;5071471;28;20119;-74
2022/12/25 13:58:38;;;;;;;19.27;14.05;;;;;;;;;;5066955;28;20052;-74
2022/12/25 14:01:04;;;;;;;22.80;14.30;;;;;;;;;;5066285;28;20043;-74
2022/12/25 14:03:34;;;;;;;21.20;13.77;;;;;;;;;;5065205;28;20404;-74
2022/12/25 14:06:06;;;;;;;20.15;13.02;;;;;;;;;;5069517;28;20468;-74
2022/12/25 14:08:34;;;;;;;18.33;13.45;;;;;;;;;;5066346;28;20050;-74
2022/12/25 14:11:04;;;;;;;21.20;13.48;;;;;;;;;;5065458;28;20041;-74
2022/12/25 14:13:32;;;;;;;17.83;13.00;;;;;;;;;;5066379;28;20063;-74
2022/12/25 14:15:59;;;;;;;19.42;12.40;;;;;;;;;;5068033;28;20090;-74
2022/12/25 14:18:25;;;;;;;20.00;13.18;;;;;;;;;;5069179;28;20082;-74
2022/12/25 14:20:58;;;;;;;19.48;12.93;;;;;;;;;;5068263;28;20044;-74
2022/12/25 14:23:24;;;;;;;16.47;12.47;;;;;;;;;;5064851;28;20489;-74
2022/12/25 14:25:50;;;;;;;19.95;12.60;;;;;;;;;;5066129;28;20043;-74
2022/12/25 14:28:18;;;;;;;21.55;13.90;;;;;;;;;;5064648;28;20053;-74
2022/12/25 14:30:47;;;;;;;18.52;13.10;;;;;;;;;;5064256;28;20529;-74
2022/12/25 14:33:15;;;;;;;18.27;13.05;;;;;;;;;;5063232;28;20052;-74
2022/12/25 14:35:41;;;;;;;18.13;12.75;;;;;;;;;;5064960;28;20122;-74
2022/12/25 14:38:12;;;;;;;17.13;12.85;;;;;;;;;;5068696;28;20048;-74
2022/12/25 14:40:42;;;;;;;17.98;13.30;;;;;;;;;;5065936;28;20508;-74
2022/12/25 14:43:28;;;;;;;18.63;13.38;;;;;;;;;;5065980;28;20089;-74
2022/12/25 14:46:01;;;;;;;18.77;12.82;;;;;;;;;;5065160;28;20041;-74
2022/12/25 14:48:27;;;;;;;;;;;;;;;;;;5064218;28;20088;-74
2022/12/25 14:51:05;;;;;;;16.50;12.77;;;;;;;;;;5069860;28;19923;-74
2022/12/25 14:53:40;;;;;;;17.50;12.57;;;;;;;;;;5061120;28;20036;-73
2022/12/25 14:56:09;;;;;;;38.67;28.13;;;;;;;;;;5062980;28;20119;-74
2022/12/25 14:58:39;;;;;;;16.02;12.35;;;;;;;;;;5069323;28;20098;-74
2022/12/25 15:01:05;;;;;;;17.17;12.77;;;;;;;;;;5061152;28;20493;-74
2022/12/25 15:03:35;;;;;;;15.70;12.98;;;;;;;;;;5067981;28;20105;-74
2022/12/25 15:06:20;;;;;;;18.05;12.95;;;;;;;;;;5055797;28;20051;-74
2022/12/25 15:09:12;;;;;;;16.45;12.85;;;;;;;;;;5063873;28;20090;-74
2022/12/25 15:11:38;;;;;;;16.15;12.13;;;;;;;;;;5063011;28;20063;-74
2022/12/25 15:14:04;;;;;;;16.05;12.48;;;;;;;;;;5069111;28;20048;-74
2022/12/25 15:16:38;;;;;;;16.88;12.15;;;;;;;;;;5062939;28;20041;-74
2022/12/25 15:19:06;;;;;;;16.40;12.55;;;;;;;;;;5061470;28;20052;-73
2022/12/25 15:21:33;;;;;;;17.33;13.75;;;;;;;;;;5068508;28;20506;-74
2022/12/25 15:24:00;;;;;;;19.35;14.38;;;;;;;;;;5062008;28;20049;-74
2022/12/25 15:26:27;;;;;;;16.50;13.52;;;;;;;;;;5068221;28;20056;-74
2022/12/25 15:28:56;;;;;;;17.95;13.50;;;;;;;;;;5065516;28;20496;-73
2022/12/25 15:31:22;;;;;;;17.10;13.52;;;;;;;;;;5060237;28;20101;-74
2022/12/25 15:33:48;;;;;;;18.50;13.95;;;;;;;;;;5067540;28;20051;-74
2022/12/25 15:36:14;;;;;;;18.80;14.52;;;;;;;;;;5061849;28;20415;-74
2022/12/25 15:38:40;;;;;;;20.10;13.50;;;;;;;;;;5065043;28;20531;-74
2022/12/25 15:42:09;;;;;;;17.88;14.60;;;;;;;;;;5062803;28;20052;-74
2022/12/25 15:43:57;;;;;;;20.00;13.98;;;;;;;;;;5061032;28;20049;-74
2022/12/25 15:46:24;;;;;;;19.45;14.20;;;;;;;;;;5062282;28;20121;-74
2022/12/25 15:48:50;;;;;;;20.13;14.95;;;;;;;;;;5063652;28;20051;-74
2022/12/25 15:51:16;;;;;;;18.65;15.07;;;;;;;;;;5064121;28;20408;-74
2022/12/25 15:53:42;;;;;;;39.08;26.30;;;;;;;;;;5059653;28;20041;-74
2022/12/25 15:56:09;;;;;;;22.02;16.50;;;;;;;;;;5057771;28;20076;-74
2022/12/25 15:58:35;;;;;;;21.33;14.93;;;;;;;;;;5059981;28;20112;-74
2022/12/25 16:01:01;;;;;;;20.38;14.63;;;;;;;;;;5065444;28;20132;-74
2022/12/25 16:03:27;;;;;;;19.25;14.55;;;;;;;;;;5064300;28;20653;-73
2022/12/25 16:05:53;;;;;;;19.75;14.40;;;;;;;;;;5064733;28;20041;-74
2022/12/25 16:08:20;;;;;;;34.17;23.30;;;;;;;;;;5061831;28;20051;-74
2022/12/25 16:10:46;;;;;;;28.80;20.00;;;;;;;;;;5064792;28;20040;-74
2022/12/25 16:13:12;;;;;;;21.95;15.32;;;;;;;;;;5063733;28;20059;-74
2022/12/25 16:15:38;;;;;;;22.27;14.95;;;;;;;;;;5061459;28;20048;-74
2022/12/25 16:18:04;;;;;;;21.20;15.10;;;;;;;;;;5068286;28;20041;-73